sensor_id;sensor_type;location;lat;lon;timestamp;P1;durP1;ratioP1;P2;durP2;ratioP2
72325;SDS011;60278;47.980;18.780;2022-11-11T00:00:59;20.15;;;10.52;;
72325;SDS011;60278;47.980;18.780;2022-11-11T00:04:49;23.00;;;10.55;;
72325;SDS011;60278;47.980;18.780;2022-11-11T00:08:38;23.73;;;11.07;;
72325;SDS011;60278;47.980;18.780;2022-11-11T00:12:28;29.30;;;13.60;;
72325;SDS011;60278;47.980;18.780;2022-11-11T00:16:18;27.52;;;13.52;;
72325;SDS011;60278;47.980;18.780;2022-11-11T00:20:09;22.60;;;11.18;;
72325;SDS011;60278;47.980;18.780;2022-11-11T00:24:26;33.80;;;15.00;;
72325;SDS011;60278;47.980;18.780;2022-11-11T00:28:35;29.00;;;13.15;;
72325;SDS011;60278;47.980;18.780;2022-11-11T00:32:25;26.33;;;12.13;;
72325;SDS011;60278;47.980;18.780;2022-11-11T00:36:15;27.17;;;11.97;;
72325;SDS011;60278;47.980;18.780;2022-11-11T00:40:05;27.45;;;11.85;;
72325;SDS011;60278;47.980;18.780;2022-11-11T00:43:55;23.05;;;10.38;;
72325;SDS011;60278;47.980;18.780;2022-11-11T00:47:44;46.83;;;20.03;;
72325;SDS011;60278;47.980;18.780;2022-11-11T00:51:52;26.83;;;12.05;;
72325;SDS011;60278;47.980;18.780;2022-11-11T00:55:42;23.08;;;9.73;;
72325;SDS011;60278;47.980;18.780;2022-11-11T00:59:32;20.42;;;9.25;;
72325;SDS011;60278;47.980;18.780;2022-11-11T01:03:23;22.20;;;9.13;;
72325;SDS011;60278;47.980;18.780;2022-11-11T01:07:12;21.67;;;9.07;;
72325;SDS011;60278;47.980;18.780;2022-11-11T01:11:01;28.60;;;12.25;;
72325;SDS011;60278;47.980;18.780;2022-11-11T01:14:51;19.80;;;11.13;;
72325;SDS011;60278;47.980;18.780;2022-11-11T01:18:41;23.17;;;10.65;;
72325;SDS011;60278;47.980;18.780;2022-11-11T01:22:31;22.35;;;10.95;;
72325;SDS011;60278;47.980;18.780;2022-11-11T01:26:21;16.73;;;9.87;;
72325;SDS011;60278;47.980;18.780;2022-11-11T01:30:13;18.52;;;8.50;;
72325;SDS011;60278;47.980;18.780;2022-11-11T01:34:03;17.17;;;8.80;;
72325;SDS011;60278;47.980;18.780;2022-11-11T01:37:53;29.00;;;9.98;;
72325;SDS011;60278;47.980;18.780;2022-11-11T01:41:42;16.67;;;8.87;;
72325;SDS011;60278;47.980;18.780;2022-11-11T01:53:47;11.37;;;7.37;;
72325;SDS011;60278;47.980;18.780;2022-11-11T01:57:40;16.42;;;8.35;;
72325;SDS011;60278;47.980;18.780;2022-11-11T02:01:35;16.60;;;7.85;;
72325;SDS011;60278;47.980;18.780;2022-11-11T02:05:25;11.30;;;7.27;;
72325;SDS011;60278;47.980;18.780;2022-11-11T02:09:31;19.33;;;9.40;;
72325;SDS011;60278;47.980;18.780;2022-11-11T02:13:21;16.67;;;9.55;;
72325;SDS011;60278;47.980;18.780;2022-11-11T02:17:30;16.75;;;8.40;;
72325;SDS011;60278;47.980;18.780;2022-11-11T02:21:34;23.23;;;10.80;;
72325;SDS011;60278;47.980;18.780;2022-11-11T02:25:30;17.88;;;9.77;;
72325;SDS011;60278;47.980;18.780;2022-11-11T02:29:21;12.60;;;7.53;;
72325;SDS011;60278;47.980;18.780;2022-11-11T02:33:11;15.83;;;7.47;;
72325;SDS011;60278;47.980;18.780;2022-11-11T02:37:01;15.63;;;7.85;;
72325;SDS011;60278;47.980;18.780;2022-11-11T02:40:54;16.23;;;8.98;;
72325;SDS011;60278;47.980;18.780;2022-11-11T02:45:02;12.73;;;6.80;;
72325;SDS011;60278;47.980;18.780;2022-11-11T02:48:53;13.60;;;7.32;;
72325;SDS011;60278;47.980;18.780;2022-11-11T02:52:42;13.38;;;7.55;;
72325;SDS011;60278;47.980;18.780;2022-11-11T02:56:31;13.02;;;6.75;;
72325;SDS011;60278;47.980;18.780;2022-11-11T03:00:40;16.30;;;7.57;;
72325;SDS011;60278;47.980;18.780;2022-11-11T03:04:30;11.20;;;7.25;;
72325;SDS011;60278;47.980;18.780;2022-11-11T03:08:20;11.85;;;7.28;;
72325;SDS011;60278;47.980;18.780;2022-11-11T03:12:09;17.70;;;7.50;;
72325;SDS011;60278;47.980;18.780;2022-11-11T03:15:59;15.70;;;7.85;;
72325;SDS011;60278;47.980;18.780;2022-11-11T03:19:48;23.67;;;7.72;;
72325;SDS011;60278;47.980;18.780;2022-11-11T03:23:38;12.97;;;7.80;;
72325;SDS011;60278;47.980;18.780;2022-11-11T03:27:27;28.38;;;10.20;;
72325;SDS011;60278;47.980;18.780;2022-11-11T03:31:17;16.00;;;7.97;;
72325;SDS011;60278;47.980;18.780;2022-11-11T03:35:06;17.08;;;8.88;;
72325;SDS011;60278;47.980;18.780;2022-11-11T03:38:56;21.37;;;7.80;;
72325;SDS011;60278;47.980;18.780;2022-11-11T03:42:45;15.15;;;7.70;;
72325;SDS011;60278;47.980;18.780;2022-11-11T03:46:35;16.80;;;7.05;;
72325;SDS011;60278;47.980;18.780;2022-11-11T03:50:24;15.07;;;7.00;;
72325;SDS011;60278;47.980;18.780;2022-11-11T03:54:14;24.38;;;9.25;;
72325;SDS011;60278;47.980;18.780;2022-11-11T03:58:03;46.53;;;16.42;;
72325;SDS011;60278;47.980;18.780;2022-11-11T04:01:52;18.97;;;9.73;;
72325;SDS011;60278;47.980;18.780;2022-11-11T04:06:01;11.75;;;6.78;;
72325;SDS011;60278;47.980;18.780;2022-11-11T04:10:09;29.55;;;12.50;;
72325;SDS011;60278;47.980;18.780;2022-11-11T04:14:12;15.98;;;9.80;;
72325;SDS011;60278;47.980;18.780;2022-11-11T04:18:21;14.07;;;7.73;;
72325;SDS011;60278;47.980;18.780;2022-11-11T04:22:31;30.23;;;11.23;;
72325;SDS011;60278;47.980;18.780;2022-11-11T04:26:20;15.70;;;8.82;;
72325;SDS011;60278;47.980;18.780;2022-11-11T04:30:10;14.03;;;6.30;;
72325;SDS011;60278;47.980;18.780;2022-11-11T04:33:59;16.75;;;9.00;;
72325;SDS011;60278;47.980;18.780;2022-11-11T04:37:49;16.95;;;7.93;;
72325;SDS011;60278;47.980;18.780;2022-11-11T04:41:38;17.40;;;8.27;;
72325;SDS011;60278;47.980;18.780;2022-11-11T04:45:27;13.10;;;8.13;;
72325;SDS011;60278;47.980;18.780;2022-11-11T04:49:19;12.85;;;7.10;;
72325;SDS011;60278;47.980;18.780;2022-11-11T04:53:09;26.33;;;7.88;;
72325;SDS011;60278;47.980;18.780;2022-11-11T04:57:00;27.80;;;8.40;;
72325;SDS011;60278;47.980;18.780;2022-11-11T05:00:50;14.70;;;8.43;;
72325;SDS011;60278;47.980;18.780;2022-11-11T05:04:39;19.38;;;8.02;;
72325;SDS011;60278;47.980;18.780;2022-11-11T05:08:28;11.30;;;7.00;;
72325;SDS011;60278;47.980;18.780;2022-11-11T05:12:37;15.15;;;7.50;;
72325;SDS011;60278;47.980;18.780;2022-11-11T05:16:27;24.70;;;7.38;;
72325;SDS011;60278;47.980;18.780;2022-11-11T05:20:38;10.40;;;6.57;;
72325;SDS011;60278;47.980;18.780;2022-11-11T05:24:46;13.45;;;6.50;;
72325;SDS011;60278;47.980;18.780;2022-11-11T05:28:54;20.38;;;7.90;;
72325;SDS011;60278;47.980;18.780;2022-11-11T05:32:44;22.90;;;10.32;;
72325;SDS011;60278;47.980;18.780;2022-11-11T05:36:33;25.83;;;11.63;;
72325;SDS011;60278;47.980;18.780;2022-11-11T05:40:23;21.77;;;10.27;;
72325;SDS011;60278;47.980;18.780;2022-11-11T05:44:12;26.23;;;9.25;;
72325;SDS011;60278;47.980;18.780;2022-11-11T05:48:01;21.27;;;11.70;;
72325;SDS011;60278;47.980;18.780;2022-11-11T05:51:52;28.50;;;11.52;;
72325;SDS011;60278;47.980;18.780;2022-11-11T05:55:41;14.10;;;8.60;;
72325;SDS011;60278;47.980;18.780;2022-11-11T05:59:30;22.10;;;6.97;;
72325;SDS011;60278;47.980;18.780;2022-11-11T06:03:20;22.80;;;6.57;;
72325;SDS011;60278;47.980;18.780;2022-11-11T06:07:09;20.92;;;10.05;;
72325;SDS011;60278;47.980;18.780;2022-11-11T06:10:58;16.73;;;8.52;;
72325;SDS011;60278;47.980;18.780;2022-11-11T06:14:48;16.20;;;6.97;;
72325;SDS011;60278;47.980;18.780;2022-11-11T06:18:37;11.95;;;6.60;;
72325;SDS011;60278;47.980;18.780;2022-11-11T06:22:26;13.85;;;8.30;;
72325;SDS011;60278;47.980;18.780;2022-11-11T06:26:36;10.87;;;6.63;;
72325;SDS011;60278;47.980;18.780;2022-11-11T06:30:25;13.63;;;8.45;;
72325;SDS011;60278;47.980;18.780;2022-11-11T06:34:15;12.80;;;7.63;;
72325;SDS011;60278;47.980;18.780;2022-11-11T06:38:05;13.00;;;8.27;;
72325;SDS011;60278;47.980;18.780;2022-11-11T06:41:55;15.45;;;9.40;;
72325;SDS011;60278;47.980;18.780;2022-11-11T06:45:45;18.08;;;7.90;;
72325;SDS011;60278;47.980;18.780;2022-11-11T06:49:38;18.33;;;8.93;;
72325;SDS011;60278;47.980;18.780;2022-11-11T06:53:27;15.10;;;8.57;;
72325;SDS011;60278;47.980;18.780;2022-11-11T06:57:17;13.55;;;8.65;;
72325;SDS011;60278;47.980;18.780;2022-11-11T07:01:07;31.88;;;11.13;;
72325;SDS011;60278;47.980;18.780;2022-11-11T07:04:57;15.03;;;8.93;;
72325;SDS011;60278;47.980;18.780;2022-11-11T07:08:48;12.85;;;8.05;;
72325;SDS011;60278;47.980;18.780;2022-11-11T07:12:39;21.50;;;9.82;;
72325;SDS011;60278;47.980;18.780;2022-11-11T07:16:29;26.83;;;10.67;;
72325;SDS011;60278;47.980;18.780;2022-11-11T07:20:19;31.70;;;10.05;;
72325;SDS011;60278;47.980;18.780;2022-11-11T07:24:09;22.10;;;10.02;;
72325;SDS011;60278;47.980;18.780;2022-11-11T07:27:58;23.27;;;9.85;;
72325;SDS011;60278;47.980;18.780;2022-11-11T07:31:48;22.10;;;9.20;;
72325;SDS011;60278;47.980;18.780;2022-11-11T07:35:39;24.48;;;9.23;;
72325;SDS011;60278;47.980;18.780;2022-11-11T07:39:28;16.67;;;8.35;;
72325;SDS011;60278;47.980;18.780;2022-11-11T07:43:18;21.47;;;9.03;;
72325;SDS011;60278;47.980;18.780;2022-11-11T07:47:07;18.13;;;9.40;;
72325;SDS011;60278;47.980;18.780;2022-11-11T07:50:57;18.27;;;7.53;;
72325;SDS011;60278;47.980;18.780;2022-11-11T07:54:46;48.27;;;14.73;;
72325;SDS011;60278;47.980;18.780;2022-11-11T07:58:36;46.90;;;18.42;;
72325;SDS011;60278;47.980;18.780;2022-11-11T08:02:25;22.48;;;9.70;;
72325;SDS011;60278;47.980;18.780;2022-11-11T08:06:18;20.40;;;8.00;;
72325;SDS011;60278;47.980;18.780;2022-11-11T08:10:09;13.10;;;7.53;;
72325;SDS011;60278;47.980;18.780;2022-11-11T08:13:59;21.55;;;9.07;;
72325;SDS011;60278;47.980;18.780;2022-11-11T08:17:48;62.20;;;15.57;;
72325;SDS011;60278;47.980;18.780;2022-11-11T08:21:38;29.63;;;10.80;;
72325;SDS011;60278;47.980;18.780;2022-11-11T08:25:27;59.13;;;19.23;;
72325;SDS011;60278;47.980;18.780;2022-11-11T08:29:18;27.38;;;11.50;;
72325;SDS011;60278;47.980;18.780;2022-11-11T08:33:08;21.57;;;8.90;;
72325;SDS011;60278;47.980;18.780;2022-11-11T08:36:57;48.25;;;13.60;;
72325;SDS011;60278;47.980;18.780;2022-11-11T08:40:47;21.17;;;9.10;;
72325;SDS011;60278;47.980;18.780;2022-11-11T08:44:37;35.53;;;10.48;;
72325;SDS011;60278;47.980;18.780;2022-11-11T08:48:27;17.33;;;8.67;;
72325;SDS011;60278;47.980;18.780;2022-11-11T08:52:16;14.70;;;8.27;;
72325;SDS011;60278;47.980;18.780;2022-11-11T08:56:05;25.38;;;11.10;;
72325;SDS011;60278;47.980;18.780;2022-11-11T08:59:56;17.37;;;9.63;;
72325;SDS011;60278;47.980;18.780;2022-11-11T09:03:45;24.50;;;11.20;;
72325;SDS011;60278;47.980;18.780;2022-11-11T09:07:35;21.50;;;12.30;;
72325;SDS011;60278;47.980;18.780;2022-11-11T09:11:25;22.20;;;11.70;;
72325;SDS011;60278;47.980;18.780;2022-11-11T09:15:15;23.55;;;11.20;;
72325;SDS011;60278;47.980;18.780;2022-11-11T09:19:04;28.08;;;12.75;;
72325;SDS011;60278;47.980;18.780;2022-11-11T09:22:54;26.77;;;11.05;;
72325;SDS011;60278;47.980;18.780;2022-11-11T09:26:46;22.90;;;12.00;;
72325;SDS011;60278;47.980;18.780;2022-11-11T09:30:37;54.55;;;22.85;;
72325;SDS011;60278;47.980;18.780;2022-11-11T09:34:26;35.72;;;17.17;;
72325;SDS011;60278;47.980;18.780;2022-11-11T09:38:16;46.50;;;20.10;;
72325;SDS011;60278;47.980;18.780;2022-11-11T09:42:13;24.98;;;13.38;;
72325;SDS011;60278;47.980;18.780;2022-11-11T09:50:41;17.87;;;10.23;;
72325;SDS011;60278;47.980;18.780;2022-11-11T09:54:30;19.73;;;10.40;;
72325;SDS011;60278;47.980;18.780;2022-11-11T10:02:59;20.92;;;10.43;;
72325;SDS011;60278;47.980;18.780;2022-11-11T10:06:59;52.40;;;17.67;;
72325;SDS011;60278;47.980;18.780;2022-11-11T10:10:54;24.08;;;11.65;;
72325;SDS011;60278;47.980;18.780;2022-11-11T10:14:49;20.65;;;11.35;;
72325;SDS011;60278;47.980;18.780;2022-11-11T10:18:58;18.50;;;10.23;;
72325;SDS011;60278;47.980;18.780;2022-11-11T10:22:53;21.38;;;10.75;;
72325;SDS011;60278;47.980;18.780;2022-11-11T10:27:06;24.10;;;10.77;;
72325;SDS011;60278;47.980;18.780;2022-11-11T10:31:14;19.47;;;10.27;;
72325;SDS011;60278;47.980;18.780;2022-11-11T10:35:17;19.63;;;10.95;;
72325;SDS011;60278;47.980;18.780;2022-11-11T10:39:13;21.63;;;10.82;;
72325;SDS011;60278;47.980;18.780;2022-11-11T10:43:16;27.15;;;11.93;;
72325;SDS011;60278;47.980;18.780;2022-11-11T10:52:26;40.67;;;16.85;;
72325;SDS011;60278;47.980;18.780;2022-11-11T10:56:01;38.55;;;15.18;;
72325;SDS011;60278;47.980;18.780;2022-11-11T11:00:07;29.23;;;13.80;;
72325;SDS011;60278;47.980;18.780;2022-11-11T11:04:10;24.45;;;12.30;;
72325;SDS011;60278;47.980;18.780;2022-11-11T11:08:20;33.72;;;15.57;;
72325;SDS011;60278;47.980;18.780;2022-11-11T11:12:16;29.73;;;14.03;;
72325;SDS011;60278;47.980;18.780;2022-11-11T11:16:30;22.52;;;12.00;;
72325;SDS011;60278;47.980;18.780;2022-11-11T11:20:22;23.92;;;12.75;;
72325;SDS011;60278;47.980;18.780;2022-11-11T11:24:17;23.30;;;13.00;;
72325;SDS011;60278;47.980;18.780;2022-11-11T11:28:12;21.50;;;12.47;;
72325;SDS011;60278;47.980;18.780;2022-11-11T11:32:12;24.70;;;12.40;;
72325;SDS011;60278;47.980;18.780;2022-11-11T11:36:14;27.25;;;13.05;;
72325;SDS011;60278;47.980;18.780;2022-11-11T11:40:05;27.57;;;12.70;;
72325;SDS011;60278;47.980;18.780;2022-11-11T11:43:56;31.38;;;14.93;;
72325;SDS011;60278;47.980;18.780;2022-11-11T11:52:16;23.87;;;12.43;;
72325;SDS011;60278;47.980;18.780;2022-11-11T12:00:27;24.08;;;14.00;;
72325;SDS011;60278;47.980;18.780;2022-11-11T12:20:18;28.57;;;15.23;;
72325;SDS011;60278;47.980;18.780;2022-11-11T12:28:41;26.83;;;12.95;;
72325;SDS011;60278;47.980;18.780;2022-11-11T13:05:49;56.38;;;30.65;;
72325;SDS011;60278;47.980;18.780;2022-11-11T13:17:41;61.95;;;25.88;;
72325;SDS011;60278;47.980;18.780;2022-11-11T13:25:45;40.72;;;18.38;;
72325;SDS011;60278;47.980;18.780;2022-11-11T13:33:50;31.83;;;14.55;;
72325;SDS011;60278;47.980;18.780;2022-11-11T13:37:44;37.83;;;16.92;;
72325;SDS011;60278;47.980;18.780;2022-11-11T13:41:35;35.80;;;16.57;;
72325;SDS011;60278;47.980;18.780;2022-11-11T13:46:03;52.25;;;23.73;;
72325;SDS011;60278;47.980;18.780;2022-11-11T13:49:50;30.17;;;14.38;;
72325;SDS011;60278;47.980;18.780;2022-11-11T13:53:44;62.50;;;23.90;;
72325;SDS011;60278;47.980;18.780;2022-11-11T13:57:43;57.08;;;26.67;;
72325;SDS011;60278;47.980;18.780;2022-11-11T14:01:38;63.10;;;28.23;;
72325;SDS011;60278;47.980;18.780;2022-11-11T14:05:29;63.30;;;26.80;;
72325;SDS011;60278;47.980;18.780;2022-11-11T14:13:41;33.60;;;19.08;;
72325;SDS011;60278;47.980;18.780;2022-11-11T14:17:30;31.02;;;16.73;;
72325;SDS011;60278;47.980;18.780;2022-11-11T14:25:34;29.60;;;15.85;;
72325;SDS011;60278;47.980;18.780;2022-11-11T14:29:24;36.60;;;18.65;;
72325;SDS011;60278;47.980;18.780;2022-11-11T14:37:19;38.22;;;20.52;;
72325;SDS011;60278;47.980;18.780;2022-11-11T14:41:53;34.97;;;18.77;;
72325;SDS011;60278;47.980;18.780;2022-11-11T14:53:43;34.60;;;16.20;;
72325;SDS011;60278;47.980;18.780;2022-11-11T15:01:34;28.07;;;15.87;;
72325;SDS011;60278;47.980;18.780;2022-11-11T15:18:01;28.65;;;14.63;;
72325;SDS011;60278;47.980;18.780;2022-11-11T15:25:58;25.55;;;13.63;;
72325;SDS011;60278;47.980;18.780;2022-11-11T15:34:28;27.10;;;15.07;;
72325;SDS011;60278;47.980;18.780;2022-11-11T15:38:38;30.80;;;15.10;;
72325;SDS011;60278;47.980;18.780;2022-11-11T15:42:28;25.40;;;12.47;;
72325;SDS011;60278;47.980;18.780;2022-11-11T15:46:24;23.15;;;13.00;;
72325;SDS011;60278;47.980;18.780;2022-11-11T15:50:18;31.27;;;14.80;;
72325;SDS011;60278;47.980;18.780;2022-11-11T15:54:19;22.43;;;11.80;;
72325;SDS011;60278;47.980;18.780;2022-11-11T16:02:21;23.77;;;12.45;;
72325;SDS011;60278;47.980;18.780;2022-11-11T16:06:13;38.63;;;19.90;;
72325;SDS011;60278;47.980;18.780;2022-11-11T16:10:14;44.90;;;21.43;;
72325;SDS011;60278;47.980;18.780;2022-11-11T16:14:17;45.95;;;19.77;;
72325;SDS011;60278;47.980;18.780;2022-11-11T16:18:17;56.00;;;25.63;;
72325;SDS011;60278;47.980;18.780;2022-11-11T16:22:15;64.90;;;24.37;;
72325;SDS011;60278;47.980;18.780;2022-11-11T16:26:08;100.07;;;44.22;;
72325;SDS011;60278;47.980;18.780;2022-11-11T16:38:29;50.47;;;21.35;;
72325;SDS011;60278;47.980;18.780;2022-11-11T16:42:23;64.05;;;26.23;;
72325;SDS011;60278;47.980;18.780;2022-11-11T16:46:14;47.38;;;23.35;;
72325;SDS011;60278;47.980;18.780;2022-11-11T16:50:22;50.77;;;23.70;;
72325;SDS011;60278;47.980;18.780;2022-11-11T16:54:16;44.22;;;21.60;;
72325;SDS011;60278;47.980;18.780;2022-11-11T16:58:11;57.63;;;27.25;;
72325;SDS011;60278;47.980;18.780;2022-11-11T17:02:15;58.57;;;28.43;;
72325;SDS011;60278;47.980;18.780;2022-11-11T17:06:07;51.25;;;23.70;;
72325;SDS011;60278;47.980;18.780;2022-11-11T17:14:04;34.37;;;20.80;;
72325;SDS011;60278;47.980;18.780;2022-11-11T17:17:54;42.92;;;23.75;;
72325;SDS011;60278;47.980;18.780;2022-11-11T17:21:43;41.20;;;25.70;;
72325;SDS011;60278;47.980;18.780;2022-11-11T17:25:33;50.30;;;27.10;;
72325;SDS011;60278;47.980;18.780;2022-11-11T17:29:22;41.77;;;25.60;;
72325;SDS011;60278;47.980;18.780;2022-11-11T17:33:11;33.03;;;20.48;;
72325;SDS011;60278;47.980;18.780;2022-11-11T17:37:01;34.10;;;18.23;;
72325;SDS011;60278;47.980;18.780;2022-11-11T17:40:50;42.73;;;21.57;;
72325;SDS011;60278;47.980;18.780;2022-11-11T17:44:39;37.60;;;20.60;;
72325;SDS011;60278;47.980;18.780;2022-11-11T17:48:29;39.50;;;21.92;;
72325;SDS011;60278;47.980;18.780;2022-11-11T17:52:19;35.03;;;19.50;;
72325;SDS011;60278;47.980;18.780;2022-11-11T17:56:08;34.22;;;16.35;;
72325;SDS011;60278;47.980;18.780;2022-11-11T17:59:59;36.92;;;19.08;;
72325;SDS011;60278;47.980;18.780;2022-11-11T18:03:48;49.85;;;23.02;;
72325;SDS011;60278;47.980;18.780;2022-11-11T18:07:42;45.67;;;21.63;;
72325;SDS011;60278;47.980;18.780;2022-11-11T18:11:33;39.30;;;22.33;;
72325;SDS011;60278;47.980;18.780;2022-11-11T18:15:23;64.50;;;32.15;;
72325;SDS011;60278;47.980;18.780;2022-11-11T18:19:13;59.00;;;31.20;;
72325;SDS011;60278;47.980;18.780;2022-11-11T18:23:02;64.38;;;31.77;;
72325;SDS011;60278;47.980;18.780;2022-11-11T18:26:51;53.08;;;26.15;;
72325;SDS011;60278;47.980;18.780;2022-11-11T18:30:41;39.33;;;23.27;;
72325;SDS011;60278;47.980;18.780;2022-11-11T18:34:30;37.22;;;22.10;;
72325;SDS011;60278;47.980;18.780;2022-11-11T18:38:20;34.28;;;18.85;;
72325;SDS011;60278;47.980;18.780;2022-11-11T18:42:09;46.10;;;26.60;;
72325;SDS011;60278;47.980;18.780;2022-11-11T18:46:02;31.90;;;19.03;;
72325;SDS011;60278;47.980;18.780;2022-11-11T18:49:53;32.17;;;18.60;;
72325;SDS011;60278;47.980;18.780;2022-11-11T18:53:43;33.85;;;18.45;;
72325;SDS011;60278;47.980;18.780;2022-11-11T18:57:33;31.93;;;18.57;;
72325;SDS011;60278;47.980;18.780;2022-11-11T19:01:23;29.95;;;16.75;;
72325;SDS011;60278;47.980;18.780;2022-11-11T19:05:15;37.47;;;18.38;;
72325;SDS011;60278;47.980;18.780;2022-11-11T19:09:05;33.73;;;17.47;;
72325;SDS011;60278;47.980;18.780;2022-11-11T19:12:59;43.33;;;20.25;;
72325;SDS011;60278;47.980;18.780;2022-11-11T19:16:48;32.42;;;17.83;;
72325;SDS011;60278;47.980;18.780;2022-11-11T19:20:37;44.47;;;23.67;;
72325;SDS011;60278;47.980;18.780;2022-11-11T19:24:27;50.33;;;21.07;;
72325;SDS011;60278;47.980;18.780;2022-11-11T19:28:16;49.75;;;24.73;;
72325;SDS011;60278;47.980;18.780;2022-11-11T19:32:05;41.55;;;20.77;;
72325;SDS011;60278;47.980;18.780;2022-11-11T19:35:56;35.47;;;19.80;;
72325;SDS011;60278;47.980;18.780;2022-11-11T19:39:46;40.58;;;19.48;;
72325;SDS011;60278;47.980;18.780;2022-11-11T19:43:35;33.88;;;18.55;;
72325;SDS011;60278;47.980;18.780;2022-11-11T19:47:25;35.30;;;19.77;;
72325;SDS011;60278;47.980;18.780;2022-11-11T19:51:16;46.38;;;25.58;;
72325;SDS011;60278;47.980;18.780;2022-11-11T19:55:08;60.97;;;33.05;;
72325;SDS011;60278;47.980;18.780;2022-11-11T19:58:58;41.75;;;22.13;;
72325;SDS011;60278;47.980;18.780;2022-11-11T20:02:51;49.77;;;26.70;;
72325;SDS011;60278;47.980;18.780;2022-11-11T20:06:40;54.10;;;29.10;;
72325;SDS011;60278;47.980;18.780;2022-11-11T20:10:34;94.43;;;51.30;;
72325;SDS011;60278;47.980;18.780;2022-11-11T20:14:28;36.17;;;19.70;;
72325;SDS011;60278;47.980;18.780;2022-11-11T20:18:17;43.65;;;21.80;;
72325;SDS011;60278;47.980;18.780;2022-11-11T20:22:07;100.00;;;51.95;;
72325;SDS011;60278;47.980;18.780;2022-11-11T20:26:01;44.43;;;24.00;;
72325;SDS011;60278;47.980;18.780;2022-11-11T20:29:53;33.13;;;15.57;;
72325;SDS011;60278;47.980;18.780;2022-11-11T20:33:42;31.40;;;18.05;;
72325;SDS011;60278;47.980;18.780;2022-11-11T20:37:33;30.70;;;18.42;;
72325;SDS011;60278;47.980;18.780;2022-11-11T20:41:22;39.67;;;19.57;;
72325;SDS011;60278;47.980;18.780;2022-11-11T20:45:12;32.47;;;19.83;;
72325;SDS011;60278;47.980;18.780;2022-11-11T20:49:02;41.58;;;21.38;;
72325;SDS011;60278;47.980;18.780;2022-11-11T20:52:51;30.83;;;15.67;;
72325;SDS011;60278;47.980;18.780;2022-11-11T20:56:42;31.10;;;15.02;;
72325;SDS011;60278;47.980;18.780;2022-11-11T21:00:33;52.25;;;19.20;;
72325;SDS011;60278;47.980;18.780;2022-11-11T21:04:23;34.83;;;16.50;;
72325;SDS011;60278;47.980;18.780;2022-11-11T21:08:13;33.05;;;15.60;;
72325;SDS011;60278;47.980;18.780;2022-11-11T21:12:04;30.17;;;16.95;;
72325;SDS011;60278;47.980;18.780;2022-11-11T21:16:01;38.15;;;18.88;;
72325;SDS011;60278;47.980;18.780;2022-11-11T21:20:00;40.77;;;19.57;;
72325;SDS011;60278;47.980;18.780;2022-11-11T21:23:57;39.83;;;19.75;;
72325;SDS011;60278;47.980;18.780;2022-11-11T21:27:49;39.92;;;21.38;;
72325;SDS011;60278;47.980;18.780;2022-11-11T21:31:39;78.20;;;30.07;;
72325;SDS011;60278;47.980;18.780;2022-11-11T21:35:31;58.33;;;24.60;;
72325;SDS011;60278;47.980;18.780;2022-11-11T21:39:21;36.50;;;17.40;;
72325;SDS011;60278;47.980;18.780;2022-11-11T21:43:10;35.37;;;17.17;;
72325;SDS011;60278;47.980;18.780;2022-11-11T21:47:01;38.72;;;19.45;;
72325;SDS011;60278;47.980;18.780;2022-11-11T21:50:50;30.77;;;16.25;;
72325;SDS011;60278;47.980;18.780;2022-11-11T21:54:40;64.80;;;28.38;;
72325;SDS011;60278;47.980;18.780;2022-11-11T21:58:29;37.87;;;18.10;;
72325;SDS011;60278;47.980;18.780;2022-11-11T22:02:19;40.47;;;18.23;;
72325;SDS011;60278;47.980;18.780;2022-11-11T22:06:10;67.00;;;25.92;;
72325;SDS011;60278;47.980;18.780;2022-11-11T22:10:01;31.33;;;13.83;;
72325;SDS011;60278;47.980;18.780;2022-11-11T22:13:51;43.70;;;19.02;;
72325;SDS011;60278;47.980;18.780;2022-11-11T22:17:41;32.72;;;16.55;;
72325;SDS011;60278;47.980;18.780;2022-11-11T22:21:30;31.43;;;16.33;;
72325;SDS011;60278;47.980;18.780;2022-11-11T22:25:25;31.90;;;15.50;;
72325;SDS011;60278;47.980;18.780;2022-11-11T22:29:15;51.25;;;25.42;;
72325;SDS011;60278;47.980;18.780;2022-11-11T22:33:04;35.00;;;18.13;;
72325;SDS011;60278;47.980;18.780;2022-11-11T22:36:54;32.57;;;15.67;;
72325;SDS011;60278;47.980;18.780;2022-11-11T22:40:43;25.40;;;16.38;;
72325;SDS011;60278;47.980;18.780;2022-11-11T22:44:33;30.42;;;16.15;;
72325;SDS011;60278;47.980;18.780;2022-11-11T22:48:22;28.40;;;15.17;;
72325;SDS011;60278;47.980;18.780;2022-11-11T22:52:12;28.65;;;16.50;;
72325;SDS011;60278;47.980;18.780;2022-11-11T22:56:02;32.08;;;17.58;;
72325;SDS011;60278;47.980;18.780;2022-11-11T22:59:59;28.67;;;14.87;;
72325;SDS011;60278;47.980;18.780;2022-11-11T23:03:49;52.88;;;17.50;;
72325;SDS011;60278;47.980;18.780;2022-11-11T23:07:40;51.88;;;15.73;;
72325;SDS011;60278;47.980;18.780;2022-11-11T23:11:30;30.65;;;15.30;;
72325;SDS011;60278;47.980;18.780;2022-11-11T23:15:20;46.17;;;19.10;;
72325;SDS011;60278;47.980;18.780;2022-11-11T23:19:10;34.13;;;20.73;;
72325;SDS011;60278;47.980;18.780;2022-11-11T23:23:00;39.40;;;23.02;;
72325;SDS011;60278;47.980;18.780;2022-11-11T23:26:49;35.37;;;20.03;;
72325;SDS011;60278;47.980;18.780;2022-11-11T23:30:39;36.22;;;18.63;;
72325;SDS011;60278;47.980;18.780;2022-11-11T23:34:28;29.05;;;18.50;;
72325;SDS011;60278;47.980;18.780;2022-11-11T23:38:17;31.23;;;18.57;;
72325;SDS011;60278;47.980;18.780;2022-11-11T23:42:06;32.30;;;18.60;;
72325;SDS011;60278;47.980;18.780;2022-11-11T23:45:56;39.13;;;21.33;;
72325;SDS011;60278;47.980;18.780;2022-11-11T23:49:46;29.80;;;16.83;;
72325;SDS011;60278;47.980;18.780;2022-11-11T23:53:35;36.73;;;19.67;;
72325;SDS011;60278;47.980;18.780;2022-11-11T23:57:25;37.30;;;20.27;;
